createdAt,value
2019-04-05T00:02:01.558Z,5.20
2019-04-05T00:04:43.631Z,5.20
2019-04-05T00:07:25.307Z,5.20
2019-04-05T00:10:07.498Z,5.20
2019-04-05T00:12:49.874Z,5.20
2019-04-05T00:15:29.774Z,5.20
2019-04-05T00:18:18.721Z,5.20
2019-04-05T00:21:09.219Z,5.20
2019-04-05T00:23:59.697Z,5.20
2019-04-05T00:26:50.183Z,5.10
2019-04-05T00:29:39.028Z,5.10
2019-04-05T00:32:47.696Z,5.10
2019-04-05T00:35:38.194Z,5.10
2019-04-05T00:38:46.544Z,5.10
2019-04-05T00:41:37.568Z,5.10
2019-04-05T00:44:28.084Z,5.10
2019-04-05T00:47:18.720Z,5.10
2019-04-05T00:50:09.320Z,5.20
2019-04-05T00:53:17.673Z,5.20
2019-04-05T00:56:06.675Z,5.10
2019-04-05T00:59:15.007Z,5.10
2019-04-05T01:02:24.519Z,5.00
2019-04-05T01:05:32.822Z,5.10
2019-04-05T01:08:21.710Z,5.10
2019-04-05T01:11:30.045Z,5.10
2019-04-05T01:14:20.877Z,5.10
2019-04-05T01:17:29.215Z,5.10
2019-04-05T01:20:18.089Z,5.10
2019-04-05T01:23:08.771Z,5.20
2019-04-05T01:26:20.042Z,5.20
2019-04-05T01:29:10.729Z,5.20
2019-04-05T01:32:19.017Z,5.10
2019-04-05T01:35:27.366Z,5.20
2019-04-05T01:38:17.874Z,5.20
2019-04-05T01:41:08.336Z,5.20
2019-04-05T01:43:58.839Z,5.20
2019-04-05T01:46:49.246Z,5.20
2019-04-05T01:49:38.179Z,5.20
2019-04-05T01:52:28.901Z,5.20
2019-04-05T01:55:19.407Z,5.10
2019-04-05T01:58:08.210Z,5.10
2019-04-05T02:01:09.625Z,5.00
2019-04-05T02:03:52.000Z,5.10
2019-04-05T02:06:33.475Z,5.00
2019-04-05T02:09:15.556Z,5.10
2019-04-05T02:11:57.808Z,5.10
2019-04-05T02:14:39.838Z,5.10
2019-04-05T02:17:22.204Z,5.10
2019-04-05T02:20:06.215Z,5.20
2019-04-05T02:22:48.607Z,5.20
2019-04-05T02:25:30.144Z,5.20
2019-04-05T02:28:12.185Z,5.20
2019-04-05T02:30:54.587Z,5.20
2019-04-05T02:33:36.981Z,5.20
2019-04-05T02:36:18.999Z,5.10
2019-04-05T02:39:01.207Z,5.10
2019-04-05T02:41:43.102Z,5.10
2019-04-05T02:44:24.885Z,5.10
2019-04-05T02:47:07.321Z,5.10
2019-04-05T02:49:49.344Z,5.10
2019-04-05T02:52:31.204Z,5.10
2019-04-05T02:55:13.160Z,5.20
2019-04-05T02:57:54.816Z,5.10
2019-04-05T03:00:37.478Z,5.20
2019-04-05T03:03:19.121Z,5.10
2019-04-05T03:06:01.358Z,5.10
2019-04-05T03:08:43.500Z,5.10
2019-04-05T03:11:23.765Z,5.10
2019-04-05T03:14:12.822Z,5.20
2019-04-05T03:17:03.286Z,5.20
2019-04-05T03:20:11.896Z,5.20
2019-04-05T03:23:02.392Z,5.30
2019-04-05T03:26:31.741Z,5.30
2019-04-05T03:29:20.876Z,5.30
2019-04-05T03:32:11.426Z,5.30
2019-04-05T03:35:00.425Z,5.30
2019-04-05T03:37:50.950Z,5.30
2019-04-05T03:40:41.399Z,5.30
2019-04-05T03:43:32.028Z,5.30
2019-04-05T03:46:21.004Z,5.30
2019-04-05T03:49:11.453Z,5.30
2019-04-05T03:52:02.298Z,5.40
2019-04-05T03:55:10.940Z,5.40
2019-04-05T03:58:20.994Z,5.40
2019-04-05T04:01:04.822Z,5.40
2019-04-05T04:03:47.536Z,5.40
2019-04-05T04:06:29.847Z,5.40
2019-04-05T04:09:11.732Z,5.40
2019-04-05T04:11:53.583Z,5.40
2019-04-05T04:14:35.232Z,5.40
2019-04-05T04:17:13.490Z,5.30
2019-04-05T04:20:01.999Z,5.30
2019-04-05T04:22:52.450Z,5.30
2019-04-05T04:25:41.687Z,5.30
2019-04-05T04:28:50.062Z,5.30
2019-04-05T04:31:40.557Z,5.20
2019-04-05T04:34:31.385Z,5.20
2019-04-05T04:37:22.016Z,5.20
2019-04-05T04:40:30.575Z,5.20
2019-04-05T04:43:21.095Z,5.20
2019-04-05T04:46:29.431Z,5.30
2019-04-05T04:49:18.285Z,5.30
2019-04-05T04:52:09.057Z,5.30
2019-04-05T04:54:58.122Z,5.30
2019-04-05T04:58:06.431Z,5.30
2019-04-05T05:00:47.907Z,5.20
2019-04-05T05:03:30.564Z,5.30
2019-04-05T05:06:12.088Z,5.30
2019-04-05T05:08:53.673Z,5.20
2019-04-05T05:11:35.391Z,5.20
2019-04-05T05:14:18.411Z,5.30
2019-04-05T05:17:00.280Z,5.30
2019-04-05T05:19:42.219Z,5.30
2019-04-05T05:22:24.383Z,5.20
2019-04-05T05:25:06.207Z,5.20
2019-04-05T05:27:47.913Z,5.20
2019-04-05T05:30:30.006Z,5.20
2019-04-05T05:33:12.555Z,5.30
2019-04-05T05:35:54.559Z,5.40
2019-04-05T05:38:36.004Z,5.40
2019-04-05T05:41:18.243Z,5.50
2019-04-05T05:44:00.767Z,5.50
2019-04-05T05:46:42.868Z,5.50
2019-04-05T05:49:25.690Z,5.60
2019-04-05T05:52:07.660Z,5.60
2019-04-05T05:54:49.801Z,5.60
2019-04-05T05:57:31.657Z,5.50
2019-04-05T06:00:14.510Z,5.60
2019-04-05T06:02:56.484Z,5.60
2019-04-05T06:05:38.672Z,5.70
2019-04-05T06:08:21.063Z,5.70
2019-04-05T06:11:03.609Z,5.80
2019-04-05T06:13:45.670Z,5.70
2019-04-05T06:16:27.920Z,5.80
2019-04-05T06:19:09.699Z,5.70
2019-04-05T06:21:51.499Z,5.70
2019-04-05T06:24:33.634Z,5.70
2019-04-05T06:27:15.641Z,5.60
2019-04-05T06:29:57.166Z,5.60
2019-04-05T06:32:39.212Z,5.60
2019-04-05T06:35:20.989Z,5.60
2019-04-05T06:38:03.640Z,5.60
2019-04-05T06:40:45.318Z,5.60
2019-04-05T06:43:27.446Z,5.60
2019-04-05T06:46:09.580Z,5.60
2019-04-05T06:48:52.056Z,5.60
2019-04-05T06:51:34.387Z,5.60
2019-04-05T06:54:16.696Z,5.50
2019-04-05T06:56:58.691Z,5.60
2019-04-05T06:59:40.426Z,5.60
2019-04-05T07:02:21.923Z,5.60
2019-04-05T07:05:03.807Z,5.60
2019-04-05T07:07:45.484Z,5.70
2019-04-05T07:10:27.415Z,5.70
2019-04-05T07:13:08.959Z,5.70
2019-04-05T07:15:50.791Z,5.80
2019-04-05T07:18:36.018Z,5.90
2019-04-05T07:21:17.497Z,5.90
2019-04-05T07:23:59.446Z,5.90
2019-04-05T07:26:41.323Z,5.90
2019-04-05T07:29:23.051Z,5.90
2019-04-05T07:32:04.755Z,6.00
2019-04-05T07:34:46.761Z,6.10
2019-04-05T07:37:28.843Z,6.20
2019-04-05T07:40:10.358Z,6.20
2019-04-05T07:42:52.654Z,6.20
2019-04-05T07:45:32.598Z,6.30
2019-04-05T07:48:21.462Z,6.30
2019-04-05T07:51:11.927Z,6.30
2019-04-05T07:54:20.493Z,6.20
2019-04-05T07:57:09.430Z,6.20
2019-04-05T07:59:53.292Z,6.20
2019-04-05T08:02:34.931Z,6.20
2019-04-05T08:05:16.844Z,6.20
2019-04-05T08:07:58.650Z,6.30
2019-04-05T08:10:40.615Z,6.20
2019-04-05T08:13:22.629Z,6.30
2019-04-05T08:16:06.044Z,6.30
2019-04-05T08:18:57.811Z,6.40
2019-04-05T08:21:32.647Z,6.30
2019-04-05T08:24:15.029Z,6.40
2019-04-05T08:26:56.607Z,6.50
2019-04-05T08:29:38.507Z,6.50
2019-04-05T08:32:20.653Z,6.60
2019-04-05T08:35:02.853Z,6.70
2019-04-05T08:37:44.767Z,6.80
2019-04-05T08:40:26.290Z,6.80
2019-04-05T08:43:10.404Z,6.70
2019-04-05T08:45:52.768Z,6.80
2019-04-05T08:48:34.801Z,6.90
2019-04-05T08:51:16.946Z,6.90
2019-04-05T08:53:58.976Z,7.00
2019-04-05T08:56:40.701Z,7.00
2019-04-05T08:59:22.593Z,7.00
2019-04-05T09:02:04.727Z,7.10
2019-04-05T09:04:46.445Z,7.20
2019-04-05T09:07:28.419Z,7.20
2019-04-05T09:10:10.930Z,7.10
2019-04-05T09:12:53.027Z,7.20
2019-04-05T09:15:35.256Z,7.30
2019-04-05T09:18:18.746Z,7.40
2019-04-05T09:21:00.824Z,7.50
2019-04-05T09:23:42.670Z,7.50
2019-04-05T09:26:24.563Z,7.50
2019-04-05T09:29:04.540Z,7.60
2019-04-05T09:31:53.588Z,7.70
2019-04-05T09:34:44.036Z,7.70
2019-04-05T09:37:52.432Z,7.70
2019-04-05T09:40:42.919Z,7.80
2019-04-05T09:43:33.596Z,7.80
2019-04-05T09:46:47.114Z,7.90
2019-04-05T09:49:51.838Z,7.90
2019-04-05T09:52:40.725Z,7.90
2019-04-05T09:55:49.014Z,7.80
2019-04-05T09:58:37.922Z,7.70
2019-04-05T10:01:28.606Z,7.80
2019-04-05T10:04:19.055Z,7.80
2019-04-05T10:07:09.480Z,7.90
2019-04-05T10:09:59.961Z,7.80
2019-04-05T10:12:50.522Z,7.90
2019-04-05T10:15:41.012Z,7.90
2019-04-05T10:18:42.759Z,8.00
2019-04-05T10:21:24.596Z,8.10
2019-04-05T10:24:06.314Z,8.00
2019-04-05T10:26:48.377Z,8.20
2019-04-05T10:29:30.951Z,8.20
2019-04-05T10:32:13.139Z,8.30
2019-04-05T10:34:55.051Z,8.50
2019-04-05T10:37:36.921Z,8.60
2019-04-05T10:40:18.759Z,8.80
2019-04-05T10:43:00.268Z,9.00
2019-04-05T10:45:41.878Z,9.30
2019-04-05T10:48:24.298Z,9.40
2019-04-05T10:51:06.784Z,9.50
2019-04-05T10:53:48.652Z,9.70
2019-04-05T10:56:30.750Z,9.90
2019-04-05T10:59:13.105Z,10.10
2019-04-05T11:01:55.465Z,9.80
2019-04-05T11:04:37.623Z,10.00
2019-04-05T11:07:20.005Z,9.90
2019-04-05T11:10:02.079Z,10.20
2019-04-05T11:12:43.687Z,10.10
2019-04-05T11:15:26.518Z,10.30
2019-04-05T11:18:09.020Z,10.30
2019-04-05T11:20:50.456Z,10.50
2019-04-05T11:23:32.963Z,10.60
2019-04-05T11:26:14.615Z,10.70
2019-04-05T11:28:56.744Z,10.60
2019-04-05T11:31:38.343Z,10.70
2019-04-05T11:34:21.232Z,10.40
2019-04-05T11:37:03.099Z,10.50
2019-04-05T11:39:46.384Z,10.50
2019-04-05T11:42:29.088Z,10.30
2019-04-05T11:45:11.371Z,10.10
2019-04-05T11:47:53.698Z,10.20
2019-04-05T11:50:36.916Z,10.20
2019-04-05T11:53:21.898Z,10.20
2019-04-05T11:56:13.896Z,10.20
2019-04-05T11:58:48.803Z,10.30
2019-04-05T12:01:32.379Z,10.40
2019-04-05T12:04:14.252Z,10.40
2019-04-05T12:06:56.716Z,10.60
2019-04-05T12:09:38.591Z,10.40
2019-04-05T12:12:21.015Z,10.40
2019-04-05T12:15:06.223Z,10.50
2019-04-05T12:17:47.185Z,10.50
2019-04-05T12:20:16.713Z,10.60
2019-04-05T12:23:25.946Z,10.60
2019-04-05T12:26:14.832Z,10.70
2019-04-05T12:29:05.327Z,11.00
2019-04-05T12:35:09.801Z,10.80
2019-04-05T12:38:00.264Z,10.80
2019-04-05T12:40:50.827Z,10.70
2019-04-05T12:43:44.516Z,10.60
2019-04-05T12:46:51.874Z,10.50
2019-04-05T12:49:43.358Z,10.50
2019-04-05T12:52:52.691Z,10.60
2019-04-05T12:55:41.807Z,10.90
2019-04-05T12:58:50.163Z,11.20
2019-04-05T13:04:48.409Z,11.40
2019-04-05T13:07:56.860Z,11.50
2019-04-05T13:10:48.051Z,11.60
2019-04-05T13:13:57.787Z,12.00
2019-04-05T13:17:06.127Z,12.40
2019-04-05T13:19:48.190Z,12.90
2019-04-05T13:22:32.265Z,12.90
2019-04-05T13:25:14.020Z,13.40
2019-04-05T13:27:58.249Z,13.80
2019-04-05T13:30:40.899Z,14.00
2019-04-05T13:33:23.636Z,14.30
2019-04-05T13:36:08.427Z,14.20
2019-04-05T13:38:54.934Z,14.40
2019-04-05T13:41:33.762Z,14.30
2019-04-05T13:44:15.880Z,14.40
2019-04-05T13:46:58.366Z,14.40
2019-04-05T13:49:40.754Z,14.50
2019-04-05T13:52:23.681Z,14.40
2019-04-05T13:54:53.388Z,14.20
2019-04-05T13:57:44.031Z,14.00
2019-04-05T14:00:32.996Z,13.80
2019-04-05T14:03:41.440Z,13.70
2019-04-05T14:06:30.421Z,13.40
2019-04-05T14:09:20.957Z,13.20
2019-04-05T14:12:31.312Z,13.00
2019-04-05T14:15:19.873Z,12.90
2019-04-05T14:17:49.556Z,12.70
2019-04-05T14:20:21.125Z,12.70
2019-04-05T14:22:52.255Z,12.70
2019-04-05T14:25:25.332Z,12.50
2019-04-05T14:28:12.856Z,12.50
2019-04-05T14:31:02.448Z,12.40
2019-04-05T14:34:12.137Z,12.50
2019-04-05T14:37:03.032Z,12.70
2019-04-05T14:39:52.294Z,12.90
2019-04-05T14:43:00.809Z,13.00
2019-04-05T14:46:08.993Z,13.00
2019-04-05T14:48:52.443Z,13.10
2019-04-05T14:51:52.544Z,13.30
2019-04-05T14:54:51.458Z,13.50
2019-04-05T14:57:59.857Z,13.40
2019-04-05T15:00:48.946Z,13.60
2019-04-05T15:03:38.421Z,13.40
2019-04-05T15:06:28.971Z,13.50
2019-04-05T15:09:37.352Z,13.70
2019-04-05T15:12:28.864Z,13.90
2019-04-05T15:15:36.488Z,14.20
2019-04-05T15:18:26.130Z,13.70
2019-04-05T15:21:28.305Z,13.60
2019-04-05T15:24:10.651Z,13.30
2019-04-05T15:26:52.773Z,13.30
2019-04-05T15:29:35.416Z,13.10
2019-04-05T15:32:19.324Z,13.00
2019-04-05T15:35:01.405Z,13.10
2019-04-05T15:37:43.206Z,13.20
2019-04-05T15:40:25.154Z,13.20
2019-04-05T15:43:07.162Z,13.30
2019-04-05T15:45:48.771Z,13.50
2019-04-05T15:48:31.624Z,13.70
2019-04-05T15:51:14.044Z,13.10
2019-04-05T15:53:56.417Z,13.10
2019-04-05T15:56:38.215Z,13.10
2019-04-05T15:59:21.951Z,13.00
2019-04-05T16:02:04.440Z,13.20
2019-04-05T16:04:45.895Z,13.30
2019-04-05T16:07:27.979Z,13.30
2019-04-05T16:10:09.741Z,13.50
2019-04-05T16:12:51.380Z,14.50
2019-04-05T16:15:33.849Z,15.00
2019-04-05T16:18:16.257Z,15.70
2019-04-05T16:20:58.296Z,16.10
2019-04-05T16:23:40.627Z,16.30
2019-04-05T16:26:23.210Z,16.90
2019-04-05T16:29:05.644Z,17.90
2019-04-05T16:31:47.691Z,17.90
2019-04-05T16:34:30.644Z,17.80
2019-04-05T16:37:12.309Z,17.30
2019-04-05T16:46:00.059Z,15.10
2019-04-05T16:48:42.996Z,14.50
2019-04-05T16:51:25.488Z,14.40
2019-04-05T16:54:07.094Z,14.10
2019-04-05T16:56:49.533Z,13.80
2019-04-05T16:59:31.432Z,13.50
2019-04-05T17:02:13.568Z,13.20
2019-04-05T17:04:55.310Z,13.00
2019-04-05T17:07:37.381Z,12.70
2019-04-05T17:10:19.534Z,12.40
2019-04-05T17:13:01.264Z,12.20
2019-04-05T17:15:42.778Z,11.90
2019-04-05T17:18:25.087Z,11.70
2019-04-05T17:21:07.592Z,11.60
2019-04-05T17:23:49.343Z,11.30
2019-04-05T17:26:31.702Z,11.20
2019-04-05T17:29:14.585Z,10.90
2019-04-05T17:31:56.322Z,10.80
2019-04-05T17:34:26.110Z,10.60
2019-04-05T17:36:55.593Z,10.50
2019-04-05T17:39:25.121Z,10.40
2019-04-05T17:41:54.630Z,10.20
2019-04-05T17:44:24.742Z,10.10
2019-04-05T17:46:54.535Z,10.00
2019-04-05T17:49:24.043Z,9.80
2019-04-05T17:51:53.555Z,9.80
2019-04-05T17:54:23.074Z,9.70
2019-04-05T17:56:52.653Z,9.60
2019-04-05T17:59:22.736Z,9.60
2019-04-05T18:01:52.503Z,9.50
2019-04-05T18:04:21.973Z,9.50
2019-04-05T18:06:51.510Z,9.50
2019-04-05T18:09:21.088Z,9.40
2019-04-05T18:11:50.595Z,9.40
2019-04-05T18:14:20.084Z,9.30
2019-04-05T18:16:49.647Z,9.30
2019-04-05T18:19:19.258Z,9.30
2019-04-05T18:21:48.920Z,9.20
2019-04-05T18:24:18.716Z,9.20
2019-04-05T18:26:48.521Z,9.10
2019-04-05T18:29:18.071Z,9.10
2019-04-05T18:31:47.595Z,9.00
2019-04-05T18:34:17.145Z,9.00
2019-04-05T18:36:46.696Z,8.90
2019-04-05T18:39:16.801Z,8.90
2019-04-05T18:41:46.593Z,8.80
2019-04-05T18:44:16.155Z,8.80
2019-04-05T18:46:45.673Z,8.70
2019-04-05T18:49:15.226Z,8.70
2019-04-05T18:51:44.791Z,8.70
2019-04-05T18:54:14.835Z,8.60
2019-04-05T18:56:44.541Z,8.60
2019-04-05T18:59:14.350Z,8.60
2019-04-05T19:01:44.876Z,8.50
2019-04-05T19:04:14.801Z,8.50
2019-04-05T19:06:44.245Z,8.50
2019-04-05T19:09:13.783Z,8.50
2019-04-05T19:11:43.243Z,8.40
2019-04-05T19:14:12.878Z,8.40
2019-04-05T19:16:42.625Z,8.40
2019-04-05T19:19:12.205Z,8.40
2019-04-05T19:21:41.709Z,8.40
2019-04-05T19:24:11.353Z,8.40
2019-04-05T19:26:41.218Z,8.40
2019-04-05T19:29:10.797Z,8.50
2019-04-05T19:49:19.285Z,8.50
2019-04-05T19:51:48.754Z,8.40
2019-04-05T19:54:18.323Z,8.40
2019-04-05T19:56:47.871Z,8.30
2019-04-05T19:59:17.942Z,8.30
2019-04-05T20:01:47.683Z,8.30
2019-04-05T20:04:17.209Z,8.20
2019-04-05T20:06:46.979Z,8.20
2019-04-05T20:09:17.015Z,8.20
2019-04-05T20:11:46.816Z,8.10
2019-04-05T20:14:16.291Z,8.10
2019-04-05T20:16:45.845Z,8.00
2019-04-05T20:19:15.921Z,8.00
2019-04-05T20:21:45.718Z,8.00
2019-04-05T20:24:15.175Z,7.90
2019-04-05T20:26:44.758Z,7.90
2019-04-05T20:29:14.332Z,7.80
2019-04-05T20:31:43.941Z,7.80
2019-04-05T20:34:14.035Z,7.80
2019-04-05T20:36:43.779Z,7.80
2019-04-05T20:39:13.286Z,7.80
2019-04-05T20:41:42.760Z,7.80
2019-04-05T20:44:12.221Z,7.80
2019-04-05T20:46:41.777Z,7.80
2019-04-05T20:49:12.047Z,7.90
2019-04-05T20:51:41.789Z,7.90
2019-04-05T20:54:11.311Z,7.90
2019-04-05T20:56:40.872Z,7.90
2019-04-05T20:59:10.416Z,8.00
2019-04-05T21:01:39.976Z,8.10
2019-04-05T21:04:09.792Z,8.20
2019-04-05T21:06:39.384Z,8.20
2019-04-05T21:09:09.047Z,8.30
2019-04-05T21:11:38.820Z,8.30
2019-04-05T21:14:08.566Z,8.30
2019-04-05T21:16:38.058Z,8.30
2019-04-05T21:19:07.977Z,8.30
2019-04-05T21:21:37.830Z,8.30
2019-04-05T21:24:07.539Z,8.40
2019-04-05T21:26:37.095Z,8.40
2019-04-05T21:29:07.095Z,8.40
2019-04-05T21:31:36.810Z,8.30
2019-04-05T21:34:07.346Z,8.30
2019-04-05T21:36:36.834Z,8.30
2019-04-05T21:39:07.622Z,8.30
2019-04-05T21:41:37.167Z,8.30
2019-04-05T21:44:07.201Z,8.30
2019-04-05T21:46:36.866Z,8.40
2019-04-05T21:49:07.138Z,8.40
2019-04-05T21:51:36.847Z,8.40
2019-04-05T21:54:07.213Z,8.40
2019-04-05T21:56:36.884Z,8.40
2019-04-05T21:59:07.159Z,8.50
2019-04-05T22:01:37.007Z,8.50
2019-04-05T22:04:07.255Z,8.50
2019-04-05T22:06:36.893Z,8.50
2019-04-05T22:09:08.529Z,8.50
2019-04-05T22:11:38.057Z,8.50
2019-04-05T22:14:08.021Z,8.40
2019-04-05T22:16:37.839Z,8.60
2019-04-05T22:19:07.372Z,8.60
2019-04-05T22:21:36.904Z,8.60
2019-04-05T22:24:07.156Z,8.60
2019-04-05T22:26:36.930Z,8.50
2019-04-05T22:29:26.648Z,8.40
2019-04-05T22:32:17.301Z,8.30
2019-04-05T22:35:26.636Z,8.30
2019-04-05T22:38:15.605Z,8.20
2019-04-05T22:41:23.913Z,8.10
2019-04-05T22:44:14.494Z,8.20
2019-04-05T22:47:22.809Z,8.30
2019-04-05T22:50:31.695Z,8.30
2019-04-05T22:53:22.428Z,8.30
2019-04-05T22:56:30.772Z,8.30
2019-04-05T22:59:21.498Z,8.40
2019-04-05T23:02:23.163Z,8.40
2019-04-05T23:05:05.227Z,8.40
2019-04-05T23:07:47.755Z,8.60
2019-04-05T23:10:30.239Z,8.50
2019-04-05T23:13:12.777Z,8.50
2019-04-05T23:15:54.489Z,8.60
2019-04-05T23:18:36.116Z,8.60
2019-04-05T23:21:17.354Z,8.60
2019-04-05T23:24:08.787Z,8.60
2019-04-05T23:26:59.427Z,8.70
2019-04-05T23:29:49.882Z,8.70
2019-04-05T23:32:58.357Z,8.70
2019-04-05T23:35:48.821Z,8.70
2019-04-05T23:38:57.424Z,8.70
2019-04-05T23:41:47.867Z,8.70
2019-04-05T23:44:38.642Z,8.70
2019-04-05T23:47:27.693Z,8.70
2019-04-05T23:50:18.165Z,8.60
2019-04-05T23:53:08.687Z,8.60
2019-04-05T23:56:17.029Z,8.60
2019-04-05T23:59:26.771Z,8.60
